sensor_id;sensor_type;location;lat;lon;timestamp;pressure;altitude;pressure_sealevel;temperature;humidity
53546;BME280;39432;51.902;10.844;2023-02-28T00:02:30;100932.44;;;0.99;100.00
53546;BME280;39432;51.902;10.844;2023-02-28T00:05:00;100931.59;;;1.41;100.00
53546;BME280;39432;51.902;10.844;2023-02-28T00:07:29;100934.72;;;1.12;100.00
53546;BME280;39432;51.902;10.844;2023-02-28T00:09:59;100918.00;;;1.08;100.00
53546;BME280;39432;51.902;10.844;2023-02-28T00:12:32;100924.25;;;0.66;100.00
53546;BME280;39432;51.902;10.844;2023-02-28T00:15:02;100930.69;;;1.24;100.00
53546;BME280;39432;51.902;10.844;2023-02-28T00:17:32;100928.88;;;1.41;100.00
53546;BME280;39432;51.902;10.844;2023-02-28T00:20:03;100930.16;;;1.12;100.00
53546;BME280;39432;51.902;10.844;2023-02-28T00:22:34;100930.22;;;0.86;100.00
53546;BME280;39432;51.902;10.844;2023-02-28T00:25:05;100930.75;;;1.65;100.00
53546;BME280;39432;51.902;10.844;2023-02-28T00:27:39;100927.59;;;2.10;100.00
53546;BME280;39432;51.902;10.844;2023-02-28T00:30:12;100926.25;;;1.65;100.00
53546;BME280;39432;51.902;10.844;2023-02-28T00:32:42;100925.44;;;1.14;100.00
53546;BME280;39432;51.902;10.844;2023-02-28T00:35:12;100925.84;;;0.85;100.00
53546;BME280;39432;51.902;10.844;2023-02-28T00:37:42;100935.13;;;0.57;100.00
53546;BME280;39432;51.902;10.844;2023-02-28T00:40:12;100933.22;;;1.25;100.00
53546;BME280;39432;51.902;10.844;2023-02-28T00:42:44;100931.72;;;1.23;100.00
53546;BME280;39432;51.902;10.844;2023-02-28T00:45:14;100928.47;;;1.11;100.00
53546;BME280;39432;51.902;10.844;2023-02-28T00:47:44;100934.75;;;0.86;100.00
53546;BME280;39432;51.902;10.844;2023-02-28T00:50:17;100936.00;;;1.58;100.00
53546;BME280;39432;51.902;10.844;2023-02-28T00:52:47;100945.03;;;1.24;100.00
53546;BME280;39432;51.902;10.844;2023-02-28T00:55:17;100942.09;;;1.84;100.00
53546;BME280;39432;51.902;10.844;2023-02-28T00:57:50;100939.91;;;1.72;100.00
53546;BME280;39432;51.902;10.844;2023-02-28T01:00:20;100936.50;;;2.35;100.00
53546;BME280;39432;51.902;10.844;2023-02-28T01:02:49;100938.06;;;2.21;100.00
53546;BME280;39432;51.902;10.844;2023-02-28T01:05:19;100930.41;;;2.49;99.82
53546;BME280;39432;51.902;10.844;2023-02-28T01:07:49;100940.41;;;1.67;100.00
53546;BME280;39432;51.902;10.844;2023-02-28T01:10:18;100937.19;;;1.55;100.00
53546;BME280;39432;51.902;10.844;2023-02-28T01:12:51;100933.25;;;1.34;100.00
53546;BME280;39432;51.902;10.844;2023-02-28T01:15:20;100925.78;;;1.19;100.00
53546;BME280;39432;51.902;10.844;2023-02-28T01:17:50;100934.34;;;1.65;100.00
53546;BME280;39432;51.902;10.844;2023-02-28T01:20:21;100934.31;;;1.49;100.00
53546;BME280;39432;51.902;10.844;2023-02-28T01:22:50;100931.97;;;1.62;100.00
53546;BME280;39432;51.902;10.844;2023-02-28T01:25:20;100939.94;;;1.13;100.00
53546;BME280;39432;51.902;10.844;2023-02-28T01:27:53;100938.72;;;1.91;100.00
53546;BME280;39432;51.902;10.844;2023-02-28T01:30:23;100937.03;;;1.98;100.00
53546;BME280;39432;51.902;10.844;2023-02-28T01:32:52;100932.13;;;1.69;100.00
53546;BME280;39432;51.902;10.844;2023-02-28T01:35:24;100941.09;;;1.77;100.00
53546;BME280;39432;51.902;10.844;2023-02-28T01:37:54;100930.63;;;1.82;100.00
53546;BME280;39432;51.902;10.844;2023-02-28T01:40:38;100925.19;;;1.58;100.00
53546;BME280;39432;51.902;10.844;2023-02-28T01:43:19;100928.94;;;1.65;100.00
53546;BME280;39432;51.902;10.844;2023-02-28T01:45:49;100921.53;;;2.00;100.00
53546;BME280;39432;51.902;10.844;2023-02-28T01:48:21;100921.31;;;1.52;100.00
53546;BME280;39432;51.902;10.844;2023-02-28T01:50:54;100915.88;;;0.77;100.00
53546;BME280;39432;51.902;10.844;2023-02-28T01:53:33;100921.47;;;1.26;100.00
53546;BME280;39432;51.902;10.844;2023-02-28T01:56:05;100925.38;;;1.56;100.00
53546;BME280;39432;51.902;10.844;2023-02-28T01:58:39;100921.88;;;1.89;100.00
53546;BME280;39432;51.902;10.844;2023-02-28T02:01:09;100920.34;;;1.03;100.00
53546;BME280;39432;51.902;10.844;2023-02-28T02:03:48;100915.53;;;0.72;100.00
53546;BME280;39432;51.902;10.844;2023-02-28T02:06:26;100917.75;;;0.85;100.00
53546;BME280;39432;51.902;10.844;2023-02-28T02:08:57;100914.28;;;1.01;100.00
53546;BME280;39432;51.902;10.844;2023-02-28T02:11:27;100915.09;;;1.52;100.00
53546;BME280;39432;51.902;10.844;2023-02-28T02:14:19;100903.66;;;1.99;100.00
53546;BME280;39432;51.902;10.844;2023-02-28T02:23:07;100911.19;;;0.45;100.00
53546;BME280;39432;51.902;10.844;2023-02-28T02:25:45;100914.00;;;-0.08;100.00
53546;BME280;39432;51.902;10.844;2023-02-28T02:34:41;100905.81;;;0.88;100.00
53546;BME280;39432;51.902;10.844;2023-02-28T02:37:16;100906.94;;;0.43;100.00
53546;BME280;39432;51.902;10.844;2023-02-28T02:39:54;100909.66;;;1.36;100.00
53546;BME280;39432;51.902;10.844;2023-02-28T02:42:37;100898.56;;;0.46;100.00
53546;BME280;39432;51.902;10.844;2023-02-28T02:45:12;100900.63;;;0.94;100.00
53546;BME280;39432;51.902;10.844;2023-02-28T02:47:46;100895.94;;;0.62;100.00
53546;BME280;39432;51.902;10.844;2023-02-28T02:50:22;100900.94;;;0.23;100.00
53546;BME280;39432;51.902;10.844;2023-02-28T02:53:00;100896.03;;;0.18;100.00
53546;BME280;39432;51.902;10.844;2023-02-28T02:55:34;100904.84;;;0.97;100.00
53546;BME280;39432;51.902;10.844;2023-02-28T02:58:09;100910.31;;;1.29;100.00
53546;BME280;39432;51.902;10.844;2023-02-28T03:00:45;100908.78;;;0.76;100.00
53546;BME280;39432;51.902;10.844;2023-02-28T03:03:18;100906.50;;;0.90;100.00
53546;BME280;39432;51.902;10.844;2023-02-28T03:06:00;100911.56;;;0.59;100.00
53546;BME280;39432;51.902;10.844;2023-02-28T03:08:34;100905.47;;;0.83;100.00
53546;BME280;39432;51.902;10.844;2023-02-28T03:11:05;100914.00;;;1.12;100.00
53546;BME280;39432;51.902;10.844;2023-02-28T03:16:58;100919.72;;;0.67;100.00
53546;BME280;39432;51.902;10.844;2023-02-28T03:19:45;100924.84;;;0.26;100.00
53546;BME280;39432;51.902;10.844;2023-02-28T03:22:42;100923.25;;;0.67;100.00
53546;BME280;39432;51.902;10.844;2023-02-28T03:25:22;100928.44;;;1.03;100.00
53546;BME280;39432;51.902;10.844;2023-02-28T03:28:02;100920.19;;;0.62;100.00
53546;BME280;39432;51.902;10.844;2023-02-28T03:30:41;100926.84;;;0.24;100.00
53546;BME280;39432;51.902;10.844;2023-02-28T03:33:15;100930.00;;;0.19;100.00
53546;BME280;39432;51.902;10.844;2023-02-28T03:35:52;100930.03;;;0.79;100.00
53546;BME280;39432;51.902;10.844;2023-02-28T03:38:29;100925.97;;;1.18;100.00
53546;BME280;39432;51.902;10.844;2023-02-28T03:41:05;100924.16;;;1.35;100.00
53546;BME280;39432;51.902;10.844;2023-02-28T03:43:39;100928.88;;;1.41;100.00
53546;BME280;39432;51.902;10.844;2023-02-28T03:46:14;100920.09;;;1.22;100.00
53546;BME280;39432;51.902;10.844;2023-02-28T03:48:51;100914.19;;;0.76;100.00
53546;BME280;39432;51.902;10.844;2023-02-28T03:51:24;100920.06;;;0.72;100.00
53546;BME280;39432;51.902;10.844;2023-02-28T03:54:03;100928.28;;;0.70;100.00
53546;BME280;39432;51.902;10.844;2023-02-28T03:56:38;100923.47;;;0.48;100.00
53546;BME280;39432;51.902;10.844;2023-02-28T03:59:13;100924.88;;;0.08;100.00
53546;BME280;39432;51.902;10.844;2023-02-28T04:01:46;100917.84;;;0.67;100.00
53546;BME280;39432;51.902;10.844;2023-02-28T04:04:17;100917.91;;;0.49;100.00
53546;BME280;39432;51.902;10.844;2023-02-28T04:06:49;100918.44;;;0.53;100.00
53546;BME280;39432;51.902;10.844;2023-02-28T04:09:22;100922.25;;;0.42;100.00
53546;BME280;39432;51.902;10.844;2023-02-28T04:11:52;100932.50;;;0.39;100.00
53546;BME280;39432;51.902;10.844;2023-02-28T04:14:22;100927.88;;;1.34;100.00
53546;BME280;39432;51.902;10.844;2023-02-28T04:16:52;100917.34;;;1.06;100.00
53546;BME280;39432;51.902;10.844;2023-02-28T04:19:21;100926.94;;;1.09;100.00
53546;BME280;39432;51.902;10.844;2023-02-28T04:21:52;100925.31;;;0.82;100.00
53546;BME280;39432;51.902;10.844;2023-02-28T04:24:27;100918.41;;;1.21;100.00
53546;BME280;39432;51.902;10.844;2023-02-28T04:26:57;100926.03;;;0.58;100.00
53546;BME280;39432;51.902;10.844;2023-02-28T04:29:29;100925.09;;;0.41;100.00
53546;BME280;39432;51.902;10.844;2023-02-28T04:32:00;100930.53;;;0.49;100.00
53546;BME280;39432;51.902;10.844;2023-02-28T04:34:31;100928.47;;;0.43;100.00
53546;BME280;39432;51.902;10.844;2023-02-28T04:37:01;100925.84;;;0.51;100.00
53546;BME280;39432;51.902;10.844;2023-02-28T04:39:42;100924.69;;;0.28;100.00
53546;BME280;39432;51.902;10.844;2023-02-28T04:42:12;100933.44;;;0.30;100.00
53546;BME280;39432;51.902;10.844;2023-02-28T04:44:42;100932.53;;;0.73;100.00
53546;BME280;39432;51.902;10.844;2023-02-28T04:47:11;100924.47;;;0.47;100.00
53546;BME280;39432;51.902;10.844;2023-02-28T04:49:41;100926.25;;;0.64;100.00
53546;BME280;39432;51.902;10.844;2023-02-28T04:52:11;100926.03;;;0.58;100.00
53546;BME280;39432;51.902;10.844;2023-02-28T04:54:43;100931.19;;;-0.01;100.00
53546;BME280;39432;51.902;10.844;2023-02-28T04:57:12;100929.59;;;0.06;100.00
53546;BME280;39432;51.902;10.844;2023-02-28T04:59:42;100930.69;;;-0.05;100.00
53546;BME280;39432;51.902;10.844;2023-02-28T05:02:12;100930.69;;;-0.22;100.00
53546;BME280;39432;51.902;10.844;2023-02-28T05:04:41;100935.78;;;0.24;100.00
53546;BME280;39432;51.902;10.844;2023-02-28T05:07:11;100929.72;;;-0.21;100.00
53546;BME280;39432;51.902;10.844;2023-02-28T05:09:43;100934.84;;;0.34;100.00
53546;BME280;39432;51.902;10.844;2023-02-28T05:12:13;100931.13;;;0.35;100.00
53546;BME280;39432;51.902;10.844;2023-02-28T05:14:42;100932.28;;;0.06;100.00
53546;BME280;39432;51.902;10.844;2023-02-28T05:17:12;100933.75;;;0.26;100.00
53546;BME280;39432;51.902;10.844;2023-02-28T05:19:41;100946.84;;;0.21;100.00
53546;BME280;39432;51.902;10.844;2023-02-28T05:22:15;100934.72;;;-0.01;100.00
53546;BME280;39432;51.902;10.844;2023-02-28T05:24:48;100939.91;;;-0.07;100.00
53546;BME280;39432;51.902;10.844;2023-02-28T05:27:18;100937.59;;;-0.02;100.00
53546;BME280;39432;51.902;10.844;2023-02-28T05:29:47;100930.81;;;-0.06;100.00
53546;BME280;39432;51.902;10.844;2023-02-28T05:32:17;100938.50;;;0.33;100.00
53546;BME280;39432;51.902;10.844;2023-02-28T05:34:47;100936.06;;;0.21;100.00
53546;BME280;39432;51.902;10.844;2023-02-28T05:37:16;100932.34;;;0.40;100.00
53546;BME280;39432;51.902;10.844;2023-02-28T05:39:50;100936.06;;;0.21;100.00
53546;BME280;39432;51.902;10.844;2023-02-28T05:42:20;100942.03;;;0.07;100.00
53546;BME280;39432;51.902;10.844;2023-02-28T05:44:50;100937.97;;;0.03;100.00
53546;BME280;39432;51.902;10.844;2023-02-28T05:47:19;100952.34;;;0.38;100.00
53546;BME280;39432;51.902;10.844;2023-02-28T05:49:49;100939.59;;;-0.04;100.00
53546;BME280;39432;51.902;10.844;2023-02-28T05:52:18;100949.25;;;0.85;100.00
53546;BME280;39432;51.902;10.844;2023-02-28T05:54:51;100949.38;;;0.49;100.00
53546;BME280;39432;51.902;10.844;2023-02-28T05:57:20;100956.03;;;0.37;100.00
53546;BME280;39432;51.902;10.844;2023-02-28T05:59:51;100957.63;;;0.04;100.00
53546;BME280;39432;51.902;10.844;2023-02-28T06:02:20;100959.63;;;0.19;100.00
53546;BME280;39432;51.902;10.844;2023-02-28T06:04:50;100957.72;;;0.38;100.00
53546;BME280;39432;51.902;10.844;2023-02-28T06:07:20;100962.38;;;0.28;100.00
53546;BME280;39432;51.902;10.844;2023-02-28T06:09:52;100965.53;;;0.05;100.00
53546;BME280;39432;51.902;10.844;2023-02-28T06:12:21;100956.72;;;-0.41;100.00
53546;BME280;39432;51.902;10.844;2023-02-28T06:14:51;100959.19;;;-0.12;100.00
53546;BME280;39432;51.902;10.844;2023-02-28T06:17:20;100957.19;;;0.60;100.00
53546;BME280;39432;51.902;10.844;2023-02-28T06:19:50;100956.66;;;0.31;100.00
53546;BME280;39432;51.902;10.844;2023-02-28T06:22:20;100961.81;;;-0.20;100.00
53546;BME280;39432;51.902;10.844;2023-02-28T06:24:52;100954.81;;;-0.13;100.00
53546;BME280;39432;51.902;10.844;2023-02-28T06:27:23;100965.50;;;0.41;100.00
53546;BME280;39432;51.902;10.844;2023-02-28T06:29:54;100958.91;;;0.61;100.00
53546;BME280;39432;51.902;10.844;2023-02-28T06:32:24;100972.28;;;0.53;100.00
53546;BME280;39432;51.902;10.844;2023-02-28T06:34:53;100974.25;;;-0.37;100.00
53546;BME280;39432;51.902;10.844;2023-02-28T06:37:24;100978.94;;;0.41;100.00
53546;BME280;39432;51.902;10.844;2023-02-28T06:39:58;100984.06;;;0.52;100.00
53546;BME280;39432;51.902;10.844;2023-02-28T06:42:27;100982.94;;;0.89;100.00
53546;BME280;39432;51.902;10.844;2023-02-28T06:44:58;100979.19;;;0.30;100.00
53546;BME280;39432;51.902;10.844;2023-02-28T06:47:30;100986.34;;;-0.05;100.00
53546;BME280;39432;51.902;10.844;2023-02-28T06:50:00;100987.53;;;0.70;100.00
53546;BME280;39432;51.902;10.844;2023-02-28T06:52:30;100993.03;;;0.35;100.00
53546;BME280;39432;51.902;10.844;2023-02-28T06:55:07;100990.81;;;1.16;100.00
53546;BME280;39432;51.902;10.844;2023-02-28T06:57:37;100997.19;;;1.49;100.00
53546;BME280;39432;51.902;10.844;2023-02-28T07:00:09;100991.63;;;1.59;100.00
53546;BME280;39432;51.902;10.844;2023-02-28T07:02:39;100996.94;;;2.09;100.00
53546;BME280;39432;51.902;10.844;2023-02-28T07:05:09;100999.28;;;1.88;100.00
53546;BME280;39432;51.902;10.844;2023-02-28T07:07:38;100994.25;;;2.09;100.00
53546;BME280;39432;51.902;10.844;2023-02-28T07:10:13;101000.63;;;1.84;100.00
53546;BME280;39432;51.902;10.844;2023-02-28T07:12:46;100997.03;;;3.29;100.00
53546;BME280;39432;51.902;10.844;2023-02-28T07:15:15;100993.41;;;2.25;100.00
53546;BME280;39432;51.902;10.844;2023-02-28T07:17:45;100991.00;;;3.58;100.00
53546;BME280;39432;51.902;10.844;2023-02-28T07:20:15;100996.41;;;2.47;100.00
53546;BME280;39432;51.902;10.844;2023-02-28T07:22:45;100992.06;;;3.40;100.00
53546;BME280;39432;51.902;10.844;2023-02-28T07:25:25;101003.50;;;2.64;100.00
53546;BME280;39432;51.902;10.844;2023-02-28T07:27:56;100999.56;;;3.92;97.72
53546;BME280;39432;51.902;10.844;2023-02-28T07:30:26;100999.81;;;5.11;90.33
53546;BME280;39432;51.902;10.844;2023-02-28T07:32:56;101007.03;;;4.13;84.03
53546;BME280;39432;51.902;10.844;2023-02-28T07:35:26;101007.47;;;2.93;87.56
53546;BME280;39432;51.902;10.844;2023-02-28T07:37:57;101008.19;;;3.96;87.21
53546;BME280;39432;51.902;10.844;2023-02-28T07:40:30;101014.97;;;2.42;89.08
53546;BME280;39432;51.902;10.844;2023-02-28T07:43:00;101009.44;;;2.43;95.93
53546;BME280;39432;51.902;10.844;2023-02-28T07:45:30;101005.38;;;3.19;93.62
53546;BME280;39432;51.902;10.844;2023-02-28T07:48:01;101013.84;;;3.78;92.16
53546;BME280;39432;51.902;10.844;2023-02-28T07:50:31;101007.81;;;3.68;90.21
53546;BME280;39432;51.902;10.844;2023-02-28T07:53:01;101017.34;;;2.28;92.50
53546;BME280;39432;51.902;10.844;2023-02-28T07:55:33;101017.00;;;2.56;94.58
53546;BME280;39432;51.902;10.844;2023-02-28T07:58:03;101021.94;;;1.53;98.49
53546;BME280;39432;51.902;10.844;2023-02-28T08:00:32;101026.63;;;2.09;100.00
53546;BME280;39432;51.902;10.844;2023-02-28T08:03:03;101007.31;;;1.55;100.00
53546;BME280;39432;51.902;10.844;2023-02-28T08:05:32;101017.00;;;1.32;100.00
53546;BME280;39432;51.902;10.844;2023-02-28T08:08:02;101028.69;;;1.49;100.00
53546;BME280;39432;51.902;10.844;2023-02-28T08:10:34;101021.72;;;0.96;100.00
53546;BME280;39432;51.902;10.844;2023-02-28T08:13:04;101025.41;;;1.29;100.00
53546;BME280;39432;51.902;10.844;2023-02-28T08:15:33;101027.56;;;1.68;100.00
53546;BME280;39432;51.902;10.844;2023-02-28T08:18:03;101025.94;;;0.72;100.00
53546;BME280;39432;51.902;10.844;2023-02-28T08:20:36;101023.06;;;0.48;100.00
53546;BME280;39432;51.902;10.844;2023-02-28T08:23:06;101015.88;;;1.09;100.00
53546;BME280;39432;51.902;10.844;2023-02-28T08:25:38;101029.22;;;0.84;100.00
53546;BME280;39432;51.902;10.844;2023-02-28T08:28:08;101020.00;;;0.43;100.00
53546;BME280;39432;51.902;10.844;2023-02-28T08:30:37;101020.91;;;1.38;100.00
53546;BME280;39432;51.902;10.844;2023-02-28T08:33:07;101019.19;;;1.37;100.00
53546;BME280;39432;51.902;10.844;2023-02-28T08:35:37;101025.31;;;0.78;100.00
53546;BME280;39432;51.902;10.844;2023-02-28T08:38:07;101023.91;;;1.26;100.00
53546;BME280;39432;51.902;10.844;2023-02-28T08:40:39;101034.53;;;1.36;100.00
53546;BME280;39432;51.902;10.844;2023-02-28T08:43:09;101024.38;;;1.72;100.00
53546;BME280;39432;51.902;10.844;2023-02-28T08:45:39;101025.03;;;1.66;100.00
53546;BME280;39432;51.902;10.844;2023-02-28T08:48:08;101028.66;;;2.24;100.00
53546;BME280;39432;51.902;10.844;2023-02-28T08:50:38;101029.59;;;1.23;100.00
53546;BME280;39432;51.902;10.844;2023-02-28T08:53:09;101034.16;;;0.97;100.00
53546;BME280;39432;51.902;10.844;2023-02-28T08:55:41;101037.41;;;1.43;100.00
53546;BME280;39432;51.902;10.844;2023-02-28T08:58:11;101026.75;;;1.83;100.00
53546;BME280;39432;51.902;10.844;2023-02-28T09:00:41;101026.63;;;2.09;100.00
53546;BME280;39432;51.902;10.844;2023-02-28T09:03:11;101031.81;;;1.87;100.00
53546;BME280;39432;51.902;10.844;2023-02-28T09:05:40;101035.38;;;1.95;100.00
53546;BME280;39432;51.902;10.844;2023-02-28T09:08:10;101030.84;;;2.61;100.00
53546;BME280;39432;51.902;10.844;2023-02-28T09:10:42;101034.22;;;2.22;100.00
53546;BME280;39432;51.902;10.844;2023-02-28T09:13:11;101030.19;;;2.10;100.00
53546;BME280;39432;51.902;10.844;2023-02-28T09:15:41;101032.38;;;2.31;100.00
53546;BME280;39432;51.902;10.844;2023-02-28T09:18:11;101025.94;;;2.73;100.00
53546;BME280;39432;51.902;10.844;2023-02-28T09:20:42;101021.06;;;2.44;96.96
53546;BME280;39432;51.902;10.844;2023-02-28T09:23:12;101028.47;;;2.66;97.23
53546;BME280;39432;51.902;10.844;2023-02-28T09:25:49;101030.97;;;2.84;95.85
53546;BME280;39432;51.902;10.844;2023-02-28T09:28:19;101028.50;;;2.33;92.59
53546;BME280;39432;51.902;10.844;2023-02-28T09:30:51;101031.69;;;2.29;93.07
53546;BME280;39432;51.902;10.844;2023-02-28T09:33:21;101035.00;;;2.96;89.02
53546;BME280;39432;51.902;10.844;2023-02-28T09:35:57;101023.41;;;2.47;89.68
53546;BME280;39432;51.902;10.844;2023-02-28T09:38:28;101029.50;;;2.57;90.09
53546;BME280;39432;51.902;10.844;2023-02-28T09:41:02;101023.72;;;2.76;88.51
53546;BME280;39432;51.902;10.844;2023-02-28T09:43:34;101018.34;;;3.32;87.37
53546;BME280;39432;51.902;10.844;2023-02-28T09:46:11;101025.16;;;3.59;84.00
53546;BME280;39432;51.902;10.844;2023-02-28T09:48:46;101028.25;;;3.48;80.57
53546;BME280;39432;51.902;10.844;2023-02-28T09:51:28;101035.84;;;2.97;80.72
53546;BME280;39432;51.902;10.844;2023-02-28T09:53:59;101043.47;;;2.93;81.83
53546;BME280;39432;51.902;10.844;2023-02-28T09:56:36;101035.97;;;3.20;79.75
53546;BME280;39432;51.902;10.844;2023-02-28T09:59:13;101038.25;;;2.83;78.11
53546;BME280;39432;51.902;10.844;2023-02-28T10:01:50;101040.06;;;2.99;70.36
53546;BME280;39432;51.902;10.844;2023-02-28T10:04:37;101031.09;;;3.46;67.75
53546;BME280;39432;51.902;10.844;2023-02-28T10:07:19;101043.97;;;2.88;66.53
53546;BME280;39432;51.902;10.844;2023-02-28T10:09:53;101035.97;;;3.20;65.21
53546;BME280;39432;51.902;10.844;2023-02-28T10:12:28;101032.19;;;3.29;63.08
53546;BME280;39432;51.902;10.844;2023-02-28T10:14:59;101031.97;;;3.47;63.44
53546;BME280;39432;51.902;10.844;2023-02-28T10:17:36;101038.81;;;3.18;64.22
53546;BME280;39432;51.902;10.844;2023-02-28T10:20:27;101031.00;;;3.31;65.11
53546;BME280;39432;51.902;10.844;2023-02-28T10:23:03;101039.13;;;3.31;66.29
53546;BME280;39432;51.902;10.844;2023-02-28T10:25:36;101035.22;;;3.42;66.16
53546;BME280;39432;51.902;10.844;2023-02-28T10:28:13;101032.28;;;4.06;64.64
53546;BME280;39432;51.902;10.844;2023-02-28T10:30:47;101022.59;;;3.88;65.50
53546;BME280;39432;51.902;10.844;2023-02-28T10:33:20;101049.00;;;3.08;64.71
53546;BME280;39432;51.902;10.844;2023-02-28T10:35:52;101036.50;;;3.85;65.24
53546;BME280;39432;51.902;10.844;2023-02-28T10:38:24;101023.41;;;3.66;64.07
53546;BME280;39432;51.902;10.844;2023-02-28T10:41:04;101042.88;;;3.22;64.98
53546;BME280;39432;51.902;10.844;2023-02-28T10:43:37;101031.19;;;3.69;67.48
53546;BME280;39432;51.902;10.844;2023-02-28T10:46:13;101029.44;;;4.07;66.29
53546;BME280;39432;51.902;10.844;2023-02-28T10:49:02;101029.53;;;4.14;65.79
53546;BME280;39432;51.902;10.844;2023-02-28T10:51:39;101025.09;;;4.21;62.83
53546;BME280;39432;51.902;10.844;2023-02-28T10:54:16;101023.06;;;4.23;60.99
53546;BME280;39432;51.902;10.844;2023-02-28T10:57:05;101024.69;;;3.78;60.77
53546;BME280;39432;51.902;10.844;2023-02-28T10:59:38;101013.16;;;4.30;60.49
53546;BME280;39432;51.902;10.844;2023-02-28T11:02:30;101021.06;;;3.63;59.87
53546;BME280;39432;51.902;10.844;2023-02-28T11:05:28;101018.47;;;3.38;60.97
53546;BME280;39432;51.902;10.844;2023-02-28T11:08:04;101021.19;;;3.69;61.57
53546;BME280;39432;51.902;10.844;2023-02-28T11:10:36;101013.91;;;3.70;60.40
53546;BME280;39432;51.902;10.844;2023-02-28T11:13:05;101011.94;;;4.33;59.95
53546;BME280;39432;51.902;10.844;2023-02-28T11:15:38;101016.28;;;4.42;58.98
53546;BME280;39432;51.902;10.844;2023-02-28T11:18:22;101017.03;;;4.13;57.79
53546;BME280;39432;51.902;10.844;2023-02-28T11:20:54;100998.53;;;3.93;59.94
53546;BME280;39432;51.902;10.844;2023-02-28T11:23:27;100989.06;;;4.73;60.14
53546;BME280;39432;51.902;10.844;2023-02-28T11:26:01;101001.78;;;4.12;58.84
53546;BME280;39432;51.902;10.844;2023-02-28T11:28:33;100993.81;;;4.33;58.49
53546;BME280;39432;51.902;10.844;2023-02-28T11:31:16;101003.31;;;4.14;61.18
53546;BME280;39432;51.902;10.844;2023-02-28T11:33:50;100990.69;;;4.07;60.63
53546;BME280;39432;51.902;10.844;2023-02-28T11:36:22;100996.56;;;3.87;61.67
53546;BME280;39432;51.902;10.844;2023-02-28T11:38:55;100994.56;;;4.65;61.89
53546;BME280;39432;51.902;10.844;2023-02-28T11:41:37;100995.75;;;3.79;60.67
53546;BME280;39432;51.902;10.844;2023-02-28T11:44:32;100990.81;;;4.66;61.83
53546;BME280;39432;51.902;10.844;2023-02-28T11:47:10;100987.25;;;4.51;60.69
53546;BME280;39432;51.902;10.844;2023-02-28T11:49:49;100986.56;;;4.11;61.38
53546;BME280;39432;51.902;10.844;2023-02-28T11:52:30;100982.19;;;3.87;60.31
53546;BME280;39432;51.902;10.844;2023-02-28T11:55:13;100980.31;;;3.87;59.43
53546;BME280;39432;51.902;10.844;2023-02-28T11:58:05;100969.78;;;4.15;62.08
53546;BME280;39432;51.902;10.844;2023-02-28T12:00:46;100968.28;;;4.13;63.12
53546;BME280;39432;51.902;10.844;2023-02-28T12:03:29;100977.06;;;4.15;62.58
53546;BME280;39432;51.902;10.844;2023-02-28T12:06:13;100973.50;;;4.14;59.76
53546;BME280;39432;51.902;10.844;2023-02-28T12:08:56;100981.25;;;3.94;60.48
53546;BME280;39432;51.902;10.844;2023-02-28T12:11:35;100974.41;;;4.30;61.94
53546;BME280;39432;51.902;10.844;2023-02-28T12:14:32;100987.06;;;3.91;62.84
53546;BME280;39432;51.902;10.844;2023-02-28T12:17:14;100972.72;;;3.60;62.68
53546;BME280;39432;51.902;10.844;2023-02-28T12:19:57;100967.47;;;4.27;62.62
53546;BME280;39432;51.902;10.844;2023-02-28T12:22:31;100975.97;;;4.62;61.09
53546;BME280;39432;51.902;10.844;2023-02-28T12:28:09;100967.56;;;4.19;63.55
53546;BME280;39432;51.902;10.844;2023-02-28T12:30:43;100971.75;;;3.53;62.58
53546;BME280;39432;51.902;10.844;2023-02-28T12:33:19;100957.91;;;3.48;62.73
53546;BME280;39432;51.902;10.844;2023-02-28T12:35:55;100966.75;;;3.64;62.16
53546;BME280;39432;51.902;10.844;2023-02-28T12:38:29;100958.25;;;3.44;61.97
53546;BME280;39432;51.902;10.844;2023-02-28T12:41:05;100963.72;;;3.36;61.46
53546;BME280;39432;51.902;10.844;2023-02-28T12:43:42;100964.19;;;3.71;61.74
53546;BME280;39432;51.902;10.844;2023-02-28T12:46:18;100956.59;;;3.66;61.80
53546;BME280;39432;51.902;10.844;2023-02-28T12:48:50;100951.78;;;3.54;60.90
53546;BME280;39432;51.902;10.844;2023-02-28T12:51:26;100948.06;;;3.78;60.70
53546;BME280;39432;51.902;10.844;2023-02-28T12:54:04;100953.22;;;3.41;60.36
53546;BME280;39432;51.902;10.844;2023-02-28T12:56:42;100951.41;;;3.57;60.29
53546;BME280;39432;51.902;10.844;2023-02-28T12:59:19;100953.00;;;3.74;60.50
53546;BME280;39432;51.902;10.844;2023-02-28T13:02:00;100941.44;;;4.03;61.53
53546;BME280;39432;51.902;10.844;2023-02-28T13:04:47;100938.28;;;3.46;60.99
53546;BME280;39432;51.902;10.844;2023-02-28T13:07:50;100951.03;;;3.37;61.15
53546;BME280;39432;51.902;10.844;2023-02-28T13:10:38;100927.13;;;3.94;61.58
53546;BME280;39432;51.902;10.844;2023-02-28T13:13:14;100925.00;;;4.42;60.97
53546;BME280;39432;51.902;10.844;2023-02-28T13:16:02;100930.78;;;4.39;60.60
53546;BME280;39432;51.902;10.844;2023-02-28T13:18:35;100925.94;;;3.97;60.98
53546;BME280;39432;51.902;10.844;2023-02-28T13:21:07;100925.44;;;3.48;61.81
53546;BME280;39432;51.902;10.844;2023-02-28T13:23:59;100917.81;;;4.12;62.02
53546;BME280;39432;51.902;10.844;2023-02-28T13:29:31;100906.13;;;4.34;61.81
53546;BME280;39432;51.902;10.844;2023-02-28T13:32:19;100907.66;;;3.76;59.81
53546;BME280;39432;51.902;10.844;2023-02-28T13:38:16;100906.56;;;4.23;61.05
53546;BME280;39432;51.902;10.844;2023-02-28T13:40:48;100906.38;;;3.64;60.83
53546;BME280;39432;51.902;10.844;2023-02-28T13:43:18;100889.41;;;4.31;59.75